El Palomar, Argentina

4:23 AM ART on July 04, 2015 (GMT -0300)
Loma Hermosa | | Change Station
CLOSE
Current Station
Personal Weather Station
Location: Loma Hermosa, BUENOS AIRES
Elevation: 70 ft
Nearby Weather Stations

Elev 70 ft 34.56 °S, 58.59 °W | Updated 3 minutes ago

Clear
Clear
38.5 °F
Feels Like 38 °F
N
1.6
Wind Variable Wind from South
Gusts 6.0 mph

Today
High -- | Low -- °F
--% Chance of Precip.
Yesterday
High -- | Low -- °F
Precip. -- in
8:01 AM 5:55 PM
Waning Gibbous, 94% visible
Pressure 30.24 in
Visibility -9999.0 miles
Clouds
Windchill 38 °F
Dew Point 38 °F
Humidity 100%
Rainfall 0.00 in
Snow Depth Not available.
UV Not available.
Pollen Not available.
Air Quality Not available.
Flu Activity Not available.
METAR SADF 040700Z 23004KT CAVOK 06/04 Q1024

More Conditions Fewer Conditions

Pressure 30.24 in
Visibility -9999.0 miles
Clouds
Windchill 38 °F
Dew Point 38 °F
Humidity 100%
Rainfall 0.00 in
Snow Depth Not available.
UV Not available.
Pollen Not available.
Air Quality Not available.
Flu Activity Not available.
METAR SADF 040700Z 23004KT CAVOK 06/04 Q1024

More Conditions Fewer Conditions

10-Day Weather Forecast

×

Almanac

Astronomy

Jul. 04, 2015 Rise Set
Actual Time
Civil Twilight
Nautical Twilight
Astronomical Twilight
Moon
Length of Visible Light
Length of Day
Tomorrow will be .
, % of the Moon is Illuminated

Today's Extremes

Country Highs Country Lows

Community

WunderPhotos

Upload Photos

1,834,926 photos uploaded!

WunderBlogs® & News

Nearby

Air Quality

  Air Quality AQ Index Pollutant
Not available.

Snow Depth

Station Depth Elevation

Earthquake Activity

City Distance Mag. Time & Date
Minimum magnitude displayed is 2.5.

Coastal Water Temperatures

Place Temperature

Stations

Nearby Weather Stations

Station Location Temp. Windchill Dew Point Humidity Wind Precip. Elev Updated Type